Terminal Aerodrome Forecast
Issued by NWS

Home | Current Version | Previous Version | Text Only | Print | Product List | Glossary On
Versions: 1 2 3 4 5 6 7 8 9 10 11 12 13 14 15 16 17
000
FTUS44 KLIX 290900 AAA
TAFMCB
TAF AMD
KMCB 290901Z 2909/3006 00000KT 3SM BR OVC003
     FM291600 VRB03KT P6SM OVC010
     FM300200 VRB03KT P6SM OVC005=

USA.gov is the U.S. government's official web portal to all federal, state and local government web resources and services.